Terminal Aerodrome Forecast
Issued by NWS Sterling, VA

Home | Current Version | Previous Version | Text Only | Print | Product List | Glossary On
Versions: 1 2 3 4 5 6 7 8 9 10 11 12 13 14
367
FTUS41 KLWX 141730
TAFCHO
TAF
KCHO 141730Z 1418/1518 VRB03KT P6SM BKN100 OVC200
     FM150300 16005KT 2SM -SN OVC008
     FM151700 00000KT 2SM -SN OVC008=

USA.gov is the U.S. government's official web portal to all federal, state and local government web resources and services.